createdAt,value
2019-03-25T00:03:05.660Z,5.50
2019-03-25T00:07:16.915Z,5.50
2019-03-25T00:11:28.591Z,5.40
2019-03-25T00:15:39.843Z,5.40
2019-03-25T00:19:51.063Z,5.30
2019-03-25T00:24:02.362Z,5.20
2019-03-25T00:28:13.877Z,5.20
2019-03-25T00:32:25.084Z,5.10
2019-03-25T00:36:36.979Z,5.00
2019-03-25T00:40:48.411Z,5.00
2019-03-25T00:45:00.508Z,4.90
2019-03-25T00:49:11.529Z,4.90
2019-03-25T00:53:24.855Z,4.90
2019-03-25T00:57:36.048Z,4.90
2019-03-25T01:01:47.156Z,4.90
2019-03-25T01:05:58.268Z,4.90
2019-03-25T01:10:09.523Z,4.90
2019-03-25T01:14:20.730Z,4.90
2019-03-25T01:18:31.948Z,4.90
2019-03-25T01:22:43.181Z,4.80
2019-03-25T01:26:54.825Z,4.80
2019-03-25T01:31:06.553Z,4.80
2019-03-25T01:35:17.753Z,4.70
2019-03-25T01:39:29.524Z,4.70
2019-03-25T01:43:40.835Z,4.70
2019-03-25T01:47:54.634Z,4.70
2019-03-25T01:52:05.823Z,4.80
2019-03-25T01:56:16.055Z,4.70
2019-03-25T02:00:27.405Z,4.70
2019-03-25T02:04:38.774Z,4.70
2019-03-25T02:08:51.418Z,4.70
2019-03-25T02:13:02.860Z,4.70
2019-03-25T02:17:14.540Z,4.70
2019-03-25T02:21:25.703Z,4.70
2019-03-25T02:25:36.957Z,4.80
2019-03-25T02:29:48.149Z,4.70
2019-03-25T02:33:59.424Z,4.70
2019-03-25T02:38:10.667Z,4.70
2019-03-25T02:42:22.020Z,4.60
2019-03-25T02:46:33.210Z,4.60
2019-03-25T02:50:44.478Z,4.50
2019-03-25T02:54:55.939Z,4.50
2019-03-25T02:59:07.531Z,4.40
2019-03-25T03:03:18.777Z,4.40
2019-03-25T03:07:29.986Z,4.40
2019-03-25T03:11:41.372Z,4.40
2019-03-25T03:15:52.731Z,4.40
2019-03-25T03:20:05.708Z,4.40
2019-03-25T03:24:16.788Z,4.50
2019-03-25T03:28:27.993Z,4.50
2019-03-25T03:32:39.034Z,4.60
2019-03-25T03:36:50.286Z,4.60
2019-03-25T03:41:01.817Z,4.70
2019-03-25T03:45:13.404Z,4.80
2019-03-25T03:49:24.856Z,4.80
2019-03-25T03:53:36.549Z,4.80
2019-03-25T03:57:47.946Z,4.70
2019-03-25T04:01:59.585Z,4.60
2019-03-25T04:06:11.312Z,4.50
2019-03-25T04:10:21.985Z,4.50
2019-03-25T04:14:33.062Z,4.50
2019-03-25T04:18:44.212Z,4.60
2019-03-25T04:22:56.077Z,4.70
2019-03-25T04:27:07.171Z,4.60
2019-03-25T04:31:18.503Z,4.60
2019-03-25T04:35:29.739Z,4.60
2019-03-25T04:39:40.763Z,4.50
2019-03-25T04:43:54.413Z,4.40
2019-03-25T04:48:05.061Z,4.40
2019-03-25T04:52:16.290Z,4.30
2019-03-25T04:56:38.820Z,4.30
2019-03-25T05:00:41.056Z,4.30
2019-03-25T05:04:52.476Z,4.30
2019-03-25T05:09:02.890Z,4.30
2019-03-25T05:13:14.494Z,4.20
2019-03-25T05:17:24.918Z,4.20
2019-03-25T05:21:37.235Z,4.30
2019-03-25T05:25:48.347Z,4.30
2019-03-25T05:30:00.467Z,4.40
2019-03-25T05:34:11.625Z,4.70
2019-03-25T05:38:23.324Z,4.80
2019-03-25T05:42:34.545Z,4.70
2019-03-25T05:46:45.873Z,4.70
2019-03-25T05:50:57.068Z,4.70
2019-03-25T05:55:08.436Z,4.70
2019-03-25T05:59:19.725Z,4.70
2019-03-25T06:03:32.156Z,4.80
2019-03-25T06:07:43.798Z,4.80
2019-03-25T06:11:54.930Z,4.80
2019-03-25T06:16:06.274Z,4.70
2019-03-25T06:20:18.879Z,4.70
2019-03-25T06:24:30.081Z,4.80
2019-03-25T06:28:41.142Z,4.80
2019-03-25T06:32:52.198Z,4.80
2019-03-25T06:37:03.280Z,4.80
2019-03-25T06:41:14.466Z,4.80
2019-03-25T06:45:25.597Z,4.90
2019-03-25T06:49:37.077Z,4.90
2019-03-25T06:53:53.447Z,4.80
2019-03-25T06:58:05.296Z,4.90
2019-03-25T07:02:18.255Z,4.90
2019-03-25T07:06:29.621Z,4.90
2019-03-25T07:10:42.065Z,4.90
2019-03-25T07:14:53.462Z,4.80
2019-03-25T07:19:07.279Z,4.90
2019-03-25T07:23:18.355Z,4.90
2019-03-25T07:27:36.783Z,4.80
2019-03-25T07:31:43.327Z,4.70
2019-03-25T07:35:54.009Z,4.70
2019-03-25T07:40:07.325Z,4.70
2019-03-25T07:44:19.058Z,4.60
2019-03-25T07:48:32.425Z,4.60
2019-03-25T07:52:43.652Z,4.80
2019-03-25T07:56:54.884Z,4.90
2019-03-25T08:01:06.453Z,5.10
2019-03-25T08:05:18.659Z,5.30
2019-03-25T08:09:29.860Z,5.30
2019-03-25T08:13:41.669Z,5.50
2019-03-25T08:17:52.738Z,5.60
2019-03-25T08:22:04.467Z,5.80
2019-03-25T08:26:15.566Z,6.00
2019-03-25T08:30:26.890Z,6.60
2019-03-25T08:34:37.973Z,6.80
2019-03-25T08:38:50.452Z,7.00
2019-03-25T08:43:02.260Z,7.40
2019-03-25T08:47:13.784Z,7.60
2019-03-25T08:51:25.090Z,7.50
2019-03-25T08:55:36.395Z,7.00
2019-03-25T08:59:46.947Z,6.90
2019-03-25T09:03:58.206Z,6.90
2019-03-25T09:08:09.397Z,7.20
2019-03-25T09:12:20.555Z,8.10
2019-03-25T09:16:33.759Z,7.90
2019-03-25T09:20:44.823Z,7.20
2019-03-25T09:24:56.316Z,7.00
2019-03-25T09:29:07.322Z,7.00
2019-03-25T09:33:18.591Z,7.40
2019-03-25T09:37:29.648Z,8.00
2019-03-25T09:41:40.838Z,7.80
2019-03-25T09:45:51.538Z,7.50
2019-03-25T09:50:02.911Z,7.60
2019-03-25T09:54:14.199Z,7.70
2019-03-25T09:58:35.744Z,7.50
2019-03-25T10:02:37.931Z,7.30
2019-03-25T10:06:49.445Z,7.30
2019-03-25T10:11:00.571Z,7.90
2019-03-25T10:15:11.939Z,8.10
2019-03-25T10:19:23.692Z,8.20
2019-03-25T10:23:34.914Z,9.30
2019-03-25T10:27:46.924Z,10.20
2019-03-25T10:31:58.085Z,10.50
2019-03-25T10:36:08.211Z,10.60
2019-03-25T10:40:19.451Z,10.70
2019-03-25T10:44:32.191Z,9.80
2019-03-25T10:48:43.487Z,9.20
2019-03-25T10:52:54.617Z,8.90
2019-03-25T10:57:05.737Z,8.80
2019-03-25T11:01:16.962Z,8.50
2019-03-25T11:05:27.167Z,8.90
2019-03-25T11:09:38.350Z,9.60
2019-03-25T11:13:52.292Z,9.30
2019-03-25T11:18:05.856Z,9.10
2019-03-25T11:22:17.303Z,9.10
2019-03-25T11:26:28.464Z,8.80
2019-03-25T11:30:45.945Z,8.70
2019-03-25T11:34:57.379Z,8.50
2019-03-25T11:39:09.690Z,8.50
2019-03-25T11:43:20.838Z,9.00
2019-03-25T11:47:31.947Z,9.30
2019-03-25T11:51:43.301Z,9.20
2019-03-25T11:55:54.601Z,9.10
2019-03-25T12:00:08.185Z,8.80
2019-03-25T12:04:20.729Z,8.60
2019-03-25T12:08:31.951Z,8.50
2019-03-25T12:12:43.204Z,8.20
2019-03-25T12:16:54.475Z,7.80
2019-03-25T12:21:06.940Z,7.60
2019-03-25T12:25:18.249Z,7.50
2019-03-25T12:29:30.612Z,7.80
2019-03-25T12:33:42.043Z,7.90
2019-03-25T12:37:52.312Z,7.70
2019-03-25T12:42:03.410Z,7.60
2019-03-25T12:46:14.525Z,7.70
2019-03-25T12:50:25.614Z,7.70
2019-03-25T12:54:36.681Z,7.60
2019-03-25T12:58:47.807Z,7.30
2019-03-25T13:02:59.202Z,6.60
2019-03-25T13:07:10.332Z,6.00
2019-03-25T13:11:22.992Z,5.50
2019-03-25T13:15:34.058Z,5.20
2019-03-25T13:19:45.261Z,4.90
2019-03-25T13:23:57.074Z,5.10
2019-03-25T13:28:11.433Z,5.30
2019-03-25T13:32:22.611Z,5.40
2019-03-25T13:36:33.691Z,5.40
2019-03-25T13:40:45.435Z,5.50
2019-03-25T13:44:57.671Z,5.40
2019-03-25T13:49:08.903Z,5.50
2019-03-25T13:53:20.586Z,5.60
2019-03-25T13:57:33.202Z,5.90
2019-03-25T14:01:45.330Z,6.30
2019-03-25T14:05:56.472Z,6.70
2019-03-25T14:10:08.837Z,7.20
2019-03-25T14:14:21.261Z,7.60
2019-03-25T14:18:32.702Z,7.70
2019-03-25T14:22:44.966Z,7.60
2019-03-25T14:26:56.519Z,7.70
2019-03-25T14:31:07.671Z,7.80
2019-03-25T14:35:18.901Z,7.50
2019-03-25T14:39:31.588Z,7.20
2019-03-25T14:43:42.755Z,7.00
2019-03-25T14:47:54.007Z,6.90
2019-03-25T14:52:05.326Z,6.70
2019-03-25T14:56:16.498Z,6.40
2019-03-25T15:00:27.266Z,6.30
2019-03-25T15:04:38.503Z,6.30
2019-03-25T15:08:49.797Z,6.20
2019-03-25T15:13:00.487Z,6.20
2019-03-25T15:17:12.570Z,6.30
2019-03-25T15:21:23.911Z,6.30
2019-03-25T15:25:34.965Z,6.40
2019-03-25T15:29:46.102Z,6.40
2019-03-25T15:33:57.748Z,6.40
2019-03-25T15:38:08.976Z,6.30
2019-03-25T15:42:20.369Z,6.40
2019-03-25T15:46:31.729Z,6.50
2019-03-25T15:50:42.532Z,6.60
2019-03-25T15:54:53.831Z,6.50
2019-03-25T15:59:07.557Z,6.10
2019-03-25T16:03:18.218Z,5.70
2019-03-25T16:07:29.395Z,5.50
2019-03-25T16:11:40.460Z,5.40
2019-03-25T16:15:51.760Z,5.50
2019-03-25T16:20:04.084Z,5.60
2019-03-25T16:24:15.293Z,5.70
2019-03-25T16:28:26.547Z,5.90
2019-03-25T16:32:38.587Z,6.00
2019-03-25T16:36:49.639Z,6.00
2019-03-25T16:41:00.878Z,6.20
2019-03-25T16:45:12.217Z,6.10
2019-03-25T16:49:24.884Z,6.10
2019-03-25T16:53:36.071Z,6.20
2019-03-25T16:57:47.120Z,6.40
2019-03-25T17:01:58.265Z,6.20
2019-03-25T17:06:09.469Z,6.10
2019-03-25T17:10:20.758Z,6.10
2019-03-25T17:14:31.991Z,6.00
2019-03-25T17:18:43.148Z,5.90
2019-03-25T17:22:54.181Z,5.90
2019-03-25T17:27:06.944Z,5.80
2019-03-25T17:31:21.116Z,5.70
2019-03-25T17:35:29.804Z,5.60
2019-03-25T17:39:45.595Z,5.50
2019-03-25T17:43:58.090Z,5.40
2019-03-25T17:48:11.628Z,5.30
2019-03-25T17:52:34.000Z,5.20
2019-03-25T17:56:42.948Z,5.10
2019-03-25T18:01:06.485Z,5.00
2019-03-25T18:05:29.144Z,5.00
2019-03-25T18:09:40.271Z,5.00
2019-03-25T18:13:57.748Z,5.00
2019-03-25T18:18:13.068Z,4.90
2019-03-25T18:22:39.174Z,4.90
2019-03-25T18:26:43.701Z,4.90
2019-03-25T18:30:55.691Z,4.80
2019-03-25T18:35:06.753Z,4.90
2019-03-25T18:39:17.801Z,5.10
2019-03-25T18:43:30.629Z,5.20
2019-03-25T18:47:42.301Z,5.30
2019-03-25T18:51:54.141Z,5.30
2019-03-25T18:56:12.454Z,5.30
2019-03-25T19:00:35.748Z,5.20
2019-03-25T19:04:48.260Z,5.10
2019-03-25T19:09:00.522Z,4.90
2019-03-25T19:13:11.651Z,4.80
2019-03-25T19:17:22.927Z,4.80
2019-03-25T19:21:34.252Z,4.80
2019-03-25T19:25:45.572Z,4.90
2019-03-25T19:29:57.187Z,4.90
2019-03-25T19:34:08.487Z,4.90
2019-03-25T19:38:19.720Z,4.70
2019-03-25T19:42:32.379Z,4.60
2019-03-25T19:46:46.816Z,4.50
2019-03-25T19:50:58.461Z,4.50
2019-03-25T19:55:10.276Z,4.50
2019-03-25T19:59:21.501Z,4.50
2019-03-25T20:03:33.146Z,4.50
2019-03-25T20:07:44.086Z,4.60
2019-03-25T20:11:55.814Z,4.70
2019-03-25T20:16:06.935Z,4.70
2019-03-25T20:20:18.155Z,4.80
2019-03-25T20:24:29.338Z,4.80
2019-03-25T20:28:40.452Z,4.80
2019-03-25T20:32:51.749Z,4.80
2019-03-25T20:37:02.779Z,4.80
2019-03-25T20:41:14.142Z,4.80
2019-03-25T20:45:25.302Z,4.80
2019-03-25T20:49:36.477Z,4.80
2019-03-25T20:53:47.622Z,4.80
2019-03-25T20:57:58.901Z,4.80
2019-03-25T21:02:09.410Z,4.80
2019-03-25T21:06:21.065Z,4.80
2019-03-25T21:10:32.372Z,4.80
2019-03-25T21:14:43.574Z,4.80
2019-03-25T21:18:53.708Z,4.80
2019-03-25T21:23:04.881Z,4.80
2019-03-25T21:27:17.015Z,4.80
2019-03-25T21:31:28.492Z,4.80
2019-03-25T21:35:40.485Z,4.80
2019-03-25T21:39:52.350Z,4.80
2019-03-25T21:44:03.826Z,4.80
2019-03-25T21:48:15.148Z,4.90
2019-03-25T21:52:26.514Z,4.90
2019-03-25T21:56:37.688Z,4.90
2019-03-25T22:00:56.420Z,5.00
2019-03-25T22:05:09.312Z,5.00
2019-03-25T22:09:20.534Z,5.00
2019-03-25T22:13:31.651Z,5.00
2019-03-25T22:17:42.626Z,5.00
2019-03-25T22:21:54.001Z,4.90
2019-03-25T22:26:05.201Z,4.80
2019-03-25T22:30:16.570Z,4.80
2019-03-25T22:34:28.709Z,4.80
2019-03-25T22:38:40.526Z,4.90
2019-03-25T22:42:51.895Z,4.80
2019-03-25T22:47:03.388Z,4.80
2019-03-25T22:51:14.540Z,4.70
2019-03-25T22:55:26.830Z,4.70
2019-03-25T22:59:40.081Z,4.70
2019-03-25T23:03:51.496Z,4.70
2019-03-25T23:08:01.883Z,4.80
2019-03-25T23:12:12.994Z,4.90
2019-03-25T23:16:24.276Z,4.90
2019-03-25T23:20:35.483Z,5.00
2019-03-25T23:24:46.655Z,5.10
2019-03-25T23:28:58.010Z,5.10
2019-03-25T23:33:09.102Z,5.10
2019-03-25T23:37:20.242Z,5.10
2019-03-25T23:41:32.101Z,5.10
2019-03-25T23:45:43.523Z,5.00
2019-03-25T23:49:55.330Z,4.90
2019-03-25T23:54:13.195Z,4.80
2019-03-25T23:58:24.478Z,4.70
